Orbital elements of FENGYUN 1C DEB
| Launched | 9 May 1999 |
| Flight ended | – |
| Launch site | Taiyuan Space Center, PRC |
| Owner | People's Republic of China |
| NORAD ID | 33621 |
| Date fetched |
Epoch osculation |
Inc. [°] |
Ecc. | RA asc node [hr] |
Arg Peri. [°] |
Mean anom [°] |
Mean motion [rev/day] |
Abs. mag |
| Date fetched |
Epoch osculation |
Inc. [°] |
Ecc. | RA asc node [hr] |
Arg Peri. [°] |
Mean anom [°] |
Mean motion [rev/day] |
Abs. mag |
| 2026 May 09 17:57 | 2026 May 02 20:03:44 | 98.1314 | 0.02826 | 21.8321 | 240.5206 | 116.7514 | 14.19996 | – |
| 2026 May 08 17:57 | 2026 May 02 20:03:44 | 98.1314 | 0.02826 | 21.8321 | 240.5206 | 116.7514 | 14.19996 | – |
| 2026 May 07 17:58 | 2026 May 02 20:03:44 | 98.1314 | 0.02826 | 21.8321 | 240.5206 | 116.7514 | 14.19996 | – |
| 2026 May 06 17:57 | 2026 May 02 20:03:44 | 98.1314 | 0.02826 | 21.8321 | 240.5206 | 116.7514 | 14.19996 | – |
| 2026 May 05 17:57 | 2026 May 02 20:03:44 | 98.1314 | 0.02826 | 21.8321 | 240.5206 | 116.7514 | 14.19996 | – |
| 2026 May 04 17:57 | 2026 Apr 30 07:10:52 | 98.1313 | 0.02828 | 21.6764 | 248.0258 | 116.7514 | 14.19996 | – |
| 2026 May 03 17:57 | 2026 Apr 30 07:10:52 | 98.1313 | 0.02828 | 21.6764 | 248.0258 | 116.7514 | 14.19996 | – |
| 2026 May 02 17:57 | 2026 Apr 30 07:10:52 | 98.1313 | 0.02828 | 21.6764 | 248.0258 | 116.7514 | 14.19996 | – |
| 2026 May 01 17:56 | 2026 Apr 30 07:10:52 | 98.1313 | 0.02828 | 21.6764 | 248.0258 | 116.7514 | 14.19996 | – |
| 2026 Apr 30 17:56 | 2026 Apr 30 07:10:52 | 98.1313 | 0.02828 | 21.6764 | 248.0258 | 116.7514 | 14.19996 | – |
| 2026 Apr 29 17:57 | 2026 Apr 22 19:55:11 | 98.1328 | 0.02827 | 21.2179 | 270.0198 | 116.7514 | 14.19996 | – |
| 2026 Apr 28 17:56 | 2026 Apr 22 19:55:11 | 98.1328 | 0.02827 | 21.2179 | 270.0198 | 116.7514 | 14.19996 | – |
| 2026 Apr 27 17:58 | 2026 Apr 22 19:55:11 | 98.1328 | 0.02827 | 21.2179 | 270.0198 | 116.7514 | 14.19996 | – |
| 2026 Apr 26 17:58 | 2026 Apr 22 19:55:11 | 98.1328 | 0.02827 | 21.2179 | 270.0198 | 116.7514 | 14.19996 | – |
| 2026 Apr 25 17:58 | 2026 Apr 22 19:55:11 | 98.1328 | 0.02827 | 21.2179 | 270.0198 | 116.7514 | 14.19996 | – |
| 2026 Apr 24 17:59 | 2026 Apr 22 19:55:11 | 98.1328 | 0.02827 | 21.2179 | 270.0198 | 116.7514 | 14.19996 | – |
| 2026 Apr 23 17:57 | 2026 Apr 18 19:31:28 | 98.1315 | 0.02829 | 20.9712 | 281.8475 | 116.7514 | 14.19996 | – |
| 2026 Apr 22 17:57 | 2026 Apr 18 19:31:28 | 98.1315 | 0.02829 | 20.9712 | 281.8475 | 116.7514 | 14.19996 | – |
| 2026 Apr 21 17:57 | 2026 Apr 18 19:31:28 | 98.1315 | 0.02829 | 20.9712 | 281.8475 | 116.7514 | 14.19996 | – |
| 2026 Apr 20 17:57 | 2026 Apr 18 19:31:28 | 98.1315 | 0.02829 | 20.9712 | 281.8475 | 116.7514 | 14.19996 | – |
| 2026 Apr 19 17:58 | 2026 Apr 18 19:31:28 | 98.1315 | 0.02829 | 20.9712 | 281.8475 | 116.7514 | 14.19996 | – |
| 2026 Apr 18 17:56 | 2026 Apr 11 20:06:06 | 98.1335 | 0.02831 | 20.5429 | 302.3883 | 116.7514 | 14.19996 | – |
| 2026 Apr 16 17:57 | 2026 Apr 11 20:06:06 | 98.1335 | 0.02831 | 20.5429 | 302.3883 | 116.7514 | 14.19996 | – |
| 2026 Apr 14 17:57 | 2026 Apr 11 20:06:06 | 98.1335 | 0.02831 | 20.5429 | 302.3883 | 116.7514 | 14.19996 | – |
| 2026 Apr 13 17:57 | 2026 Apr 11 20:06:06 | 98.1335 | 0.02831 | 20.5429 | 302.3883 | 116.7514 | 14.19996 | – |
| 2026 Apr 12 17:57 | 2026 Apr 02 07:47:52 | 98.1339 | 0.02837 | 19.9588 | 330.3399 | 116.7514 | 14.19996 | – |